キエフ/ボリースピリ の空港の天気 - METARとTAF

ボリースピリ国際空港(キエフ) ( UKBB / KBP ) - ウクライナ ボリスピリ (キエフ近郊)
飛行場実況気象(Metar)
観測時間12/14 08:00 EET (12/14 06:00 UTC)
風向・風速北北東 5m/s
視程5000m
天気現象弱い雪 もや
全天の8割程度の雲 雲底高度 150m
全天を覆う雲 雲底高度 240m
気温-1℃
湿度100%
気圧1018hPa
METARUKBB 140600Z 03005MPS 5000 -SN BR BKN005 OVC008 M01/M01 Q1018 R88/551030 TEMPO 1400 SN BR
過去の天気等 Google飛行場航空写真 Wunderground天気予報

過去48時間のMETAR

飛行場予報(TAF)
発表時間: 12/14 07:01 EET (12/14 05:01 UTC)
予報対象時間: 14日8時 EET ~ 15日8時 EET
風向・風速北北東 4m/s 瞬間風速 9m/s
視程4000m
天気現象弱い雪
全天の8割程度の雲 雲底高度 120m
全天を覆う雲 雲底高度 210m
14日8時 EET ~ 14日20時 EET に一時的に
視程1000m
天気現象しゅう雪 もや
全天の8割程度の雲 雲底高度 90m
全天の4割程度の積乱雲 雲底高度 370m
14日20時 EET ~ 15日8時 EET に一時的に
風向・風速北 4m/s 瞬間風速 9m/s
視程1600m
天気現象弱い雪 もや
全天の8割程度の雲 雲底高度 90m
TAF UKBB 140501Z 1406/1506 02004G09MPS 4000 -SN BKN004 OVC007 TXM01/1406Z TNM07/1505Z
TEMPO 1406/1418 1000 SHSN BR BKN003 SCT012CB
TEMPO 1418/1506 35004G09MPS 1600 -SN BR BKN003